createdAt,value
2022-11-24T00:00:44.723Z,6.12
2022-11-24T00:05:46.347Z,6.20
2022-11-24T00:10:48.113Z,6.21
2022-11-24T00:15:49.762Z,6.27
2022-11-24T00:20:54.400Z,6.35
2022-11-24T00:25:56.108Z,6.32
2022-11-24T00:30:57.845Z,6.29
2022-11-24T00:36:00.735Z,6.34
2022-11-24T00:41:02.387Z,6.40
2022-11-24T00:46:04.478Z,6.45
2022-11-24T00:51:09.591Z,6.51
2022-11-24T00:56:12.264Z,6.57
2022-11-24T01:01:23.153Z,6.50
2022-11-24T01:06:26.380Z,6.51
2022-11-24T01:11:52.218Z,6.55
2022-11-24T01:16:54.675Z,6.53
2022-11-24T01:21:56.377Z,6.58
2022-11-24T01:26:58.083Z,6.59
2022-11-24T01:31:59.702Z,6.54
2022-11-24T01:37:01.337Z,6.61
2022-11-24T01:42:02.999Z,6.61
2022-11-24T01:47:30.830Z,6.61
2022-11-24T01:52:40.698Z,6.68
2022-11-24T01:57:51.785Z,6.76
2022-11-24T02:02:54.681Z,6.89
2022-11-24T02:08:00.921Z,7.09
2022-11-24T02:13:02.774Z,7.24
2022-11-24T02:18:04.468Z,7.31
2022-11-24T02:23:29.523Z,7.20
2022-11-24T02:28:32.015Z,7.16
2022-11-24T02:33:35.034Z,7.21
2022-11-24T02:38:36.802Z,7.22
2022-11-24T02:43:47.452Z,7.17
2022-11-24T02:48:49.223Z,7.14
2022-11-24T02:53:50.847Z,7.08
2022-11-24T02:58:52.505Z,7.01
2022-11-24T03:03:54.116Z,6.92
2022-11-24T03:08:55.736Z,6.93
2022-11-24T03:13:57.377Z,6.90
2022-11-24T03:18:59.082Z,6.96
2022-11-24T03:24:00.739Z,7.00
2022-11-24T03:29:02.372Z,6.98
2022-11-24T03:40:36.539Z,6.89
2022-11-24T03:45:45.848Z,6.92
2022-11-24T03:50:58.975Z,7.02
2022-11-24T03:56:02.040Z,7.08
2022-11-24T04:01:03.774Z,7.05
2022-11-24T04:06:05.438Z,7.09
2022-11-24T04:11:07.315Z,7.13
2022-11-24T04:16:09.351Z,7.19
2022-11-24T04:21:11.106Z,7.30
2022-11-24T04:26:13.658Z,7.45
2022-11-24T04:31:15.448Z,7.57
2022-11-24T04:36:17.156Z,7.56
2022-11-24T04:41:18.785Z,7.53
2022-11-24T04:46:20.436Z,7.56
2022-11-24T04:51:22.224Z,7.66
2022-11-24T04:56:23.914Z,7.74
2022-11-24T05:01:25.778Z,7.84
2022-11-24T05:06:27.524Z,7.92
2022-11-24T05:11:29.294Z,8.01
2022-11-24T05:16:30.958Z,7.93
2022-11-24T05:21:32.627Z,7.82
2022-11-24T05:26:35.589Z,7.75
2022-11-24T05:31:37.296Z,7.79
2022-11-24T05:36:54.190Z,7.78
2022-11-24T05:41:55.854Z,7.71
2022-11-24T05:46:57.553Z,7.61
2022-11-24T05:51:59.204Z,7.60
2022-11-24T05:57:00.825Z,7.57
2022-11-24T06:02:03.076Z,7.55
2022-11-24T06:07:07.108Z,7.54
2022-11-24T06:12:10.887Z,7.55
2022-11-24T06:17:12.945Z,7.56
2022-11-24T06:22:14.583Z,7.57
2022-11-24T06:27:16.325Z,7.61
2022-11-24T06:32:20.111Z,7.75
2022-11-24T06:37:22.806Z,7.84
2022-11-24T06:42:25.488Z,7.90
2022-11-24T06:47:28.662Z,7.95
2022-11-24T06:52:32.314Z,7.97
2022-11-24T06:57:35.762Z,7.96
2022-11-24T07:02:42.543Z,8.03
2022-11-24T07:07:47.261Z,8.09
2022-11-24T07:12:49.955Z,8.04
2022-11-24T07:17:51.572Z,8.04
2022-11-24T07:22:57.510Z,8.04
2022-11-24T07:28:00.071Z,8.07
2022-11-24T07:33:02.730Z,8.09
2022-11-24T07:38:04.360Z,8.02
2022-11-24T07:43:05.988Z,8.10
2022-11-24T07:48:07.615Z,8.15
2022-11-24T07:53:09.261Z,8.20
2022-11-24T07:58:10.942Z,8.23
2022-11-24T08:03:12.678Z,8.37
2022-11-24T08:08:14.324Z,8.48
2022-11-24T08:13:16.166Z,8.46
2022-11-24T08:18:17.783Z,8.46
2022-11-24T08:23:19.477Z,8.73
2022-11-24T08:28:21.439Z,8.92
2022-11-24T08:33:23.102Z,8.69
2022-11-24T08:38:24.710Z,8.74
2022-11-24T08:43:26.318Z,8.98
2022-11-24T08:48:28.490Z,9.02
2022-11-24T08:53:30.161Z,9.11
2022-11-24T08:58:32.263Z,9.12
2022-11-24T09:03:34.674Z,9.03
2022-11-24T09:08:37.230Z,8.81
2022-11-24T09:13:40.126Z,8.97
2022-11-24T09:18:42.014Z,9.00
2022-11-24T09:23:44.676Z,9.05
2022-11-24T09:28:47.202Z,9.10
2022-11-24T09:33:48.842Z,9.23
2022-11-24T09:38:53.129Z,9.09
2022-11-24T09:44:26.205Z,8.81
2022-11-24T09:49:58.855Z,8.87
2022-11-24T09:55:03.682Z,8.81
2022-11-24T10:00:13.309Z,8.82
2022-11-24T10:05:32.983Z,8.71
2022-11-24T10:10:52.029Z,8.74
2022-11-24T10:16:12.746Z,8.74
2022-11-24T10:21:44.292Z,8.94
2022-11-24T10:27:16.079Z,9.04
2022-11-24T10:32:36.857Z,8.83
2022-11-24T10:38:19.117Z,9.27
2022-11-24T10:43:21.854Z,9.61
2022-11-24T10:48:38.110Z,10.06
2022-11-24T10:53:46.137Z,10.24
2022-11-24T10:58:50.551Z,10.42
2022-11-24T11:10:22.111Z,10.40
2022-11-24T11:15:31.395Z,10.39
2022-11-24T11:20:39.577Z,10.05
2022-11-24T11:25:43.834Z,10.17
2022-11-24T11:31:22.117Z,10.20
2022-11-24T11:36:27.577Z,10.11
2022-11-24T11:41:37.136Z,10.22
2022-11-24T11:46:58.871Z,10.22
2022-11-24T11:52:23.156Z,10.30
2022-11-24T11:58:04.867Z,10.20
2022-11-24T12:03:32.574Z,10.53
2022-11-24T12:09:19.249Z,10.52
2022-11-24T12:14:44.823Z,10.56
2022-11-24T12:20:02.781Z,10.35
2022-11-24T12:25:39.828Z,10.11
2022-11-24T12:31:03.182Z,9.82
2022-11-24T12:36:31.390Z,9.79
2022-11-24T12:41:58.415Z,9.56
2022-11-24T12:47:26.830Z,9.45
2022-11-24T12:52:44.313Z,9.53
2022-11-24T12:58:09.305Z,9.62
2022-11-24T13:03:43.531Z,9.65
2022-11-24T13:08:48.653Z,9.87
2022-11-24T13:14:02.665Z,9.76
2022-11-24T13:19:15.136Z,9.84
2022-11-24T13:24:19.880Z,10.12
2022-11-24T13:29:28.329Z,10.20
2022-11-24T13:34:39.131Z,9.85
2022-11-24T13:39:50.650Z,9.80
2022-11-24T13:45:31.157Z,10.09
2022-11-24T13:50:51.745Z,10.15
2022-11-24T13:56:08.360Z,10.00
2022-11-24T14:01:13.106Z,9.99
2022-11-24T14:06:39.817Z,10.19
2022-11-24T14:11:44.411Z,10.40
2022-11-24T14:17:17.009Z,10.37
2022-11-24T14:22:27.754Z,10.27
2022-11-24T14:27:34.215Z,10.07
2022-11-24T14:37:53.992Z,9.75
2022-11-24T14:42:57.634Z,9.64
2022-11-24T14:48:16.459Z,9.51
2022-11-24T14:53:26.160Z,9.43
2022-11-24T14:58:40.519Z,9.21
2022-11-24T15:03:47.426Z,9.09
2022-11-24T15:08:50.237Z,9.09
2022-11-24T15:13:57.227Z,8.97
2022-11-24T15:19:01.944Z,8.85
2022-11-24T15:24:25.537Z,8.68
2022-11-24T15:29:27.336Z,8.55
2022-11-24T15:34:29.062Z,8.42
2022-11-24T15:39:32.781Z,8.26
2022-11-24T15:44:37.059Z,8.10
2022-11-24T15:49:38.963Z,8.09
2022-11-24T15:54:40.700Z,7.97
2022-11-24T15:59:42.331Z,7.85
2022-11-24T16:04:43.980Z,7.73
2022-11-24T16:09:45.635Z,7.64
2022-11-24T16:14:47.252Z,7.45
2022-11-24T16:19:59.805Z,7.34
2022-11-24T16:25:04.136Z,7.20
2022-11-24T16:30:08.321Z,7.12
2022-11-24T16:35:10.076Z,7.06
2022-11-24T16:40:12.038Z,6.90
2022-11-24T16:45:13.822Z,6.72
2022-11-24T16:50:15.765Z,6.55
2022-11-24T16:55:17.530Z,6.45
2022-11-24T17:00:19.304Z,6.50
2022-11-24T17:05:20.925Z,6.44
2022-11-24T17:10:22.553Z,6.25
2022-11-24T17:15:33.656Z,6.13
2022-11-24T17:20:37.327Z,6.06
2022-11-24T17:25:39.013Z,5.95
2022-11-24T17:30:41.127Z,5.95
2022-11-24T17:35:44.943Z,5.87
2022-11-24T17:40:50.687Z,5.75
2022-11-24T17:45:57.246Z,5.74
2022-11-24T17:51:08.362Z,5.67
2022-11-24T17:56:16.584Z,5.70
2022-11-24T18:01:19.396Z,5.68
2022-11-24T18:06:25.115Z,5.59
2022-11-24T18:11:32.289Z,5.55
2022-11-24T18:16:34.925Z,5.55
2022-11-24T18:21:38.245Z,5.52
2022-11-24T18:26:41.894Z,5.49
2022-11-24T18:31:44.277Z,5.44
2022-11-24T18:36:52.170Z,5.19
2022-11-24T18:41:54.248Z,5.19
2022-11-24T18:46:58.097Z,5.29
2022-11-24T18:51:59.779Z,5.35
2022-11-24T18:57:03.502Z,5.40
2022-11-24T19:02:05.551Z,5.36
2022-11-24T19:07:07.272Z,5.32
2022-11-24T19:12:10.397Z,5.25
2022-11-24T19:17:12.282Z,5.01
2022-11-24T19:22:15.789Z,4.72
2022-11-24T19:27:20.845Z,4.67
2022-11-24T19:32:24.569Z,4.66
2022-11-24T19:37:31.225Z,4.60
2022-11-24T19:42:33.934Z,4.58
2022-11-24T19:47:35.645Z,4.55
2022-11-24T19:52:37.705Z,4.52
2022-11-24T19:57:39.412Z,4.57
2022-11-24T20:02:41.200Z,4.59
2022-11-24T20:07:42.888Z,4.64
2022-11-24T20:12:44.551Z,4.69
2022-11-24T20:17:46.649Z,4.72
2022-11-24T20:22:48.616Z,4.80
2022-11-24T20:27:52.012Z,4.80
2022-11-24T20:32:53.714Z,4.76
2022-11-24T20:37:55.428Z,4.64
2022-11-24T20:42:57.041Z,4.54
2022-11-24T20:47:58.720Z,4.49
2022-11-24T20:53:00.341Z,4.42
2022-11-24T20:58:02.025Z,4.36
2022-11-24T21:03:03.659Z,4.25
2022-11-24T21:08:05.325Z,4.14
2022-11-24T21:13:06.940Z,4.02
2022-11-24T21:18:08.552Z,3.94
2022-11-24T21:23:10.234Z,3.84
2022-11-24T21:28:13.035Z,3.50
2022-11-24T21:33:14.709Z,3.36
2022-11-24T21:38:16.374Z,3.41
2022-11-24T21:43:18.089Z,3.49
2022-11-24T21:48:19.725Z,3.59
2022-11-24T21:53:21.384Z,3.58
2022-11-24T21:58:23.642Z,3.57
2022-11-24T22:03:25.604Z,3.46
2022-11-24T22:08:29.279Z,3.37
2022-11-24T22:13:31.406Z,3.31
2022-11-24T22:18:35.387Z,3.30
2022-11-24T22:23:37.343Z,3.27
2022-11-24T22:28:39.564Z,3.23
2022-11-24T22:33:41.439Z,3.16
2022-11-24T22:38:43.609Z,3.12
2022-11-24T22:43:46.345Z,3.10
2022-11-24T22:48:49.429Z,3.03
2022-11-24T22:54:13.722Z,2.90
2022-11-24T22:59:15.360Z,2.77
2022-11-24T23:04:17.011Z,2.74
2022-11-24T23:09:18.649Z,2.70
2022-11-24T23:14:20.376Z,2.66
2022-11-24T23:19:22.172Z,2.70
2022-11-24T23:24:30.272Z,2.68
2022-11-24T23:29:31.921Z,2.60
2022-11-24T23:34:33.833Z,2.60
2022-11-24T23:39:35.691Z,2.57
2022-11-24T23:44:37.495Z,2.46
2022-11-24T23:49:39.170Z,2.45
2022-11-24T23:54:40.795Z,2.30
2022-11-24T23:59:42.536Z,2.38
